Hovedside
METAR-TAF:

METAR-TAF

Lufthavner :

Tobías Bolaños internasjonale lufthavn

San José, Costa Rica

breddegrad: 09-57N, lengdegrad: 084-09W, høyde over havet: 994 m

Gjeldene værobservasjon

Denne rapporten ble laget for 11 timer og 58 minutter siden, klokken 00:00 UTC
Vind 10 kt fra Øst-sørøst
Temperatur 20°C
Luftfuktighet 68%
Trykk 1020 hPa
Sikt 10 km eller mer
Få skyer i en høyde av 2500 ft
Brutte skyer i en høyde av 20000 ft

METAR: MRPV 260000Z 12010KT 9999 FEW025 BKN200 20/14 A3012 NOSIG

Tid: 05:58 (11:58 UTC)

Varsel

Denne rapporten ble laget for 48 minutter siden, klokken 11:10 UTC
Varsel gyldig fra 26. klokken 12 UTC til 27. klokken 12 UTC
Vind 15 kt fra Øst
Sikt 10 km eller mer
Spredte skyer i en høyde av 3000 ft
Midlertidig
fra 26. klokken 12 UTC til 26. klokken 21 UTC
Vind 16 kt fra Øst med vindkast opp mot 28 kt

TAF: MRPV 261110Z 2612/2712 10015KT 9999 SCT030 TX27/2619Z TN17/2710Z TEMPO 2612/2621 09016G28KT

Værobservasjoner og værvarsel for over 4000 flyplasser (METAR- og TAF-rapporter).

Tilgjengelige stasjoner er representert av de røde og gule prikkene på kartet.

Hold musepekeren over prikken for å se navnet på stasjonen.

Klikk så for å se værobservasjoner og -varsler.

For å forandre kartet kan du klikke på den grønne knappen med svart kryss for å zoome inn, på den grønne knappen med strek for å zoome ut, eller på de grønne pilene for å se tilstøtende kart.


METAR-TAF: